Time;durP1;ratioP1;P1;durP2;ratioP2;P2;SDS_P1;SDS_P2;PMS_P1;PMS_P2;Temp;Humidity;BMP_temperature;BMP_pressure;BME280_temperature;BME280_humidity;BME280_pressure;Samples;Min_cycle;Max_cycle;Signal;HPM_P1;HPM_P2
2023/06/04 00:00:31;;;;;;;2.67;1.45;;;;;;;-148.88;68.92;-17125.47;4976506;28;20105;-75
2023/06/04 00:02:57;;;;;;;4.43;1.80;;;;;;;-148.88;70.15;-17125.47;4976700;28;20050;-75
2023/06/04 00:05:25;;;;;;;4.15;1.73;;;;;;;-148.88;70.06;-17125.47;4976435;28;20054;-75
2023/06/04 00:07:51;;;;;;;4.70;1.63;;;;;;;-148.88;70.24;-17125.47;4976206;28;20125;-75
2023/06/04 00:10:17;;;;;;;3.25;1.80;;;;;;;-148.88;71.03;-17125.47;4976209;28;20027;-75
2023/06/04 00:12:42;;;;;;;2.83;1.63;;;;;;;-148.88;70.36;-17125.47;4976449;28;20101;-75
2023/06/04 00:15:07;;;;;;;3.22;1.80;;;;;;;-148.88;70.38;-17125.47;4974960;28;20371;-75
2023/06/04 00:17:33;;;;;;;2.33;1.40;;;;;;;-148.88;70.81;-17125.47;4974848;28;20027;-76
2023/06/04 00:19:58;;;;;;;2.63;1.60;;;;;;;-148.88;71.60;-17125.47;4976162;28;20057;-75
2023/06/04 00:22:24;;;;;;;2.95;1.63;;;;;;;-148.88;71.66;-17125.47;4976070;28;20027;-76
2023/06/04 00:24:49;;;;;;;3.28;1.40;;;;;;;-148.88;72.57;-17125.47;4976005;28;20118;-75
2023/06/04 00:27:15;;;;;;;2.80;1.65;;;;;;;-148.88;72.77;-17125.47;4976002;28;20383;-75
2023/06/04 00:29:40;;;;;;;4.70;1.70;;;;;;;-148.88;72.81;-17125.47;4974845;28;20038;-75
2023/06/04 00:32:06;;;;;;;6.63;1.75;;;;;;;-148.88;73.13;-17125.47;4975885;28;20471;-75
2023/06/04 00:34:31;;;;;;;2.97;1.67;;;;;;;-148.88;73.74;-17125.47;4975910;28;20019;-74
2023/06/04 00:36:57;;;;;;;4.90;1.70;;;;;;;-148.88;73.52;-17125.47;4974785;28;20030;-74
2023/06/04 00:39:22;;;;;;;3.30;1.90;;;;;;;-148.88;74.21;-17125.47;4976166;28;20038;-75
2023/06/04 00:41:47;;;;;;;3.25;1.80;;;;;;;-148.88;74.21;-17125.47;4975704;28;20534;-75
2023/06/04 00:44:13;;;;;;;6.05;1.98;;;;;;;-148.88;74.22;-17125.47;4975681;28;20030;-75
2023/06/04 00:46:38;;;;;;;3.00;1.80;;;;;;;-148.88;74.58;-17125.47;4975602;28;20027;-75
2023/06/04 00:49:05;;;;;;;3.85;2.00;;;;;;;-148.88;75.35;-17125.47;4975641;28;20022;-74
2023/06/04 00:51:31;;;;;;;5.13;1.85;;;;;;;-148.88;75.30;-17125.47;4975569;28;20023;-75
2023/06/04 00:53:58;;;;;;;3.40;2.00;;;;;;;-148.88;75.16;-17125.47;4975517;28;20035;-75
2023/06/04 00:56:23;;;;;;;3.92;1.90;;;;;;;-148.88;75.97;-17125.47;4974809;28;20470;-75
2023/06/04 00:58:49;;;;;;;3.63;1.75;;;;;;;-148.88;75.55;-17125.47;4974982;28;20098;-76
2023/06/04 01:01:34;;;;;;;3.75;2.00;;;;;;;-148.88;76.20;-17125.47;4975523;28;20026;-75
2023/06/04 01:04:02;;;;;;;5.03;1.90;;;;;;;-148.88;75.99;-17125.47;4975343;28;20050;-75
2023/06/04 01:06:38;;;;;;;2.60;1.60;;;;;;;-148.88;75.76;-17125.47;4973851;28;20018;-75
2023/06/04 01:09:05;;;;;;;3.63;1.90;;;;;;;-148.88;76.17;-17125.47;4975405;28;20027;-75
2023/06/04 01:11:36;;;;;;;4.10;1.80;;;;;;;-148.88;76.74;-17125.47;4975346;28;20104;-75
2023/06/04 01:14:03;;;;;;;3.10;1.85;;;;;;;-148.88;76.15;-17125.47;4975240;28;20027;-75
2023/06/04 01:16:32;;;;;;;2.72;1.63;;;;;;;-148.88;75.99;-17125.47;4975017;28;20031;-75
2023/06/04 01:19:02;;;;;;;3.80;1.83;;;;;;;-148.88;76.39;-17125.47;4975202;28;20482;-75
2023/06/04 01:21:35;;;;;;;4.03;2.10;;;;;;;-148.88;76.79;-17125.47;4975046;28;20486;-76
2023/06/04 01:24:04;;;;;;;3.88;1.65;;;;;;;-148.88;78.33;-17125.47;4975399;28;20038;-76
2023/06/04 01:26:31;;;;;;;3.70;1.98;;;;;;;-148.88;78.77;-17125.47;4973465;28;20081;-75
2023/06/04 01:28:58;;;;;;;3.00;1.83;;;;;;;-148.88;79.26;-17125.47;4974720;28;20105;-75
2023/06/04 01:31:28;;;;;;;3.97;1.73;;;;;;;-148.88;80.19;-17125.47;4974631;28;20018;-75
2023/06/04 01:33:55;;;;;;;2.80;1.58;;;;;;;-148.88;80.37;-17125.47;4974556;28;20482;-75
2023/06/04 01:36:23;;;;;;;4.22;1.83;;;;;;;-148.88;80.38;-17125.47;4973428;28;20379;-76
2023/06/04 01:38:49;;;;;;;3.28;1.45;;;;;;;-148.88;80.10;-17125.47;4973566;28;20161;-75
2023/06/04 01:41:14;;;;;;;3.65;1.20;;;;;;;-148.88;80.12;-17125.47;4973207;28;20031;-76
2023/06/04 01:43:39;;;;;;;6.43;1.60;;;;;;;-148.88;79.75;-17125.47;4974557;28;20106;-75
2023/06/04 01:46:05;;;;;;;3.17;1.50;;;;;;;-148.88;80.43;-17125.47;4974588;28;20046;-76
2023/06/04 01:48:31;;;;;;;4.18;1.70;;;;;;;-148.88;80.51;-17125.47;4973213;28;20370;-75
2023/06/04 01:50:57;;;;;;;4.18;2.05;;;;;;;-148.88;81.25;-17125.47;4974568;28;20060;-75
2023/06/04 01:53:22;;;;;;;2.42;1.40;;;;;;;-148.88;81.61;-17125.47;4974459;28;20105;-75
2023/06/04 01:55:49;;;;;;;4.45;1.77;;;;;;;-148.88;82.72;-17125.47;4974518;28;20026;-75
2023/06/04 01:58:22;;;;;;;2.50;1.60;;;;;;;-148.88;83.00;-17125.47;4972888;28;20029;-75
2023/06/04 02:00:52;;;;;;;3.70;1.60;;;;;;;-148.88;83.73;-17125.47;4974324;28;20027;-75
2023/06/04 02:03:18;;;;;;;3.28;1.40;;;;;;;-148.88;82.59;-17125.47;4972865;28;20037;-75
2023/06/04 02:05:46;;;;;;;3.22;1.73;;;;;;;-148.88;82.85;-17125.47;4974072;28;20023;-75
2023/06/04 02:08:12;;;;;;;3.10;1.60;;;;;;;-148.88;83.65;-17125.47;4973893;28;20027;-75
2023/06/04 02:10:37;;;;;;;5.15;1.92;;;;;;;-148.88;84.14;-17125.47;4972832;28;20026;-75
2023/06/04 02:13:03;;;;;;;3.10;1.85;;;;;;;-148.88;85.13;-17125.47;4974318;28;20023;-75
2023/06/04 02:15:30;;;;;;;4.32;2.03;;;;;;;-148.88;85.23;-17125.47;4974127;28;20437;-75
2023/06/04 02:18:15;;;;;;;3.17;1.65;;;;;;;-148.88;86.37;-17125.47;4974039;28;20054;-75
2023/06/04 02:20:42;;;;;;;3.53;2.10;;;;;;;-148.88;86.43;-17125.47;4974008;28;20051;-75
2023/06/04 02:23:07;;;;;;;1.88;1.05;;;;;;;-148.88;87.50;-17125.47;4973896;28;20042;-75
2023/06/04 02:25:33;;;;;;;3.65;2.00;;;;;;;-148.88;87.30;-17125.47;4974023;28;20026;-75
2023/06/04 02:27:58;;;;;;;2.55;1.30;;;;;;;-148.88;87.40;-17125.47;4974189;28;20418;-75
2023/06/04 02:30:23;;;;;;;3.25;1.90;;;;;;;-148.88;88.29;-17125.47;4974242;28;20027;-75
2023/06/04 02:32:50;;;;;;;4.00;2.10;;;;;;;-148.88;87.88;-17125.47;4973900;28;20367;-74
2023/06/04 02:35:17;;;;;;;7.80;2.40;;;;;;;-148.88;87.73;-17125.47;4973743;28;20027;-74
2023/06/04 02:37:42;;;;;;;3.30;1.70;;;;;;;-148.88;88.43;-17125.47;4973748;28;20022;-74
2023/06/04 02:40:08;;;;;;;5.18;1.60;;;;;;;-148.88;88.15;-17125.47;4972448;28;20031;-75
2023/06/04 02:42:34;;;;;;;3.58;2.22;;;;;;;-148.88;87.54;-17125.47;4973683;28;20047;-76
2023/06/04 02:44:59;;;;;;;5.88;2.17;;;;;;;-148.88;87.76;-17125.47;4973738;28;20774;-75
2023/06/04 02:47:24;;;;;;;2.92;1.80;;;;;;;-148.88;87.32;-17125.47;4973787;28;20080;-75
2023/06/04 02:49:50;;;;;;;4.43;1.60;;;;;;;-148.88;87.21;-17125.47;4973776;28;20027;-75
2023/06/04 02:52:15;;;;;;;4.82;2.35;;;;;;;-148.88;88.98;-17125.47;4972450;28;20033;-75
2023/06/04 02:54:41;;;;;;;4.25;2.25;;;;;;;-148.88;88.49;-17125.47;4972168;28;20033;-74
2023/06/04 02:57:07;;;;;;;2.50;1.30;;;;;;;-148.88;88.58;-17125.47;4973561;28;20109;-76
2023/06/04 02:59:32;;;;;;;3.75;1.85;;;;;;;-148.88;88.01;-17125.47;4973493;28;20102;-76
2023/06/04 03:01:58;;;;;;;3.05;1.88;;;;;;;-148.88;87.91;-17125.47;4973439;28;20046;-76
2023/06/04 03:04:23;;;;;;;3.85;1.98;;;;;;;-148.88;88.70;-17125.47;4973600;28;20347;-76
2023/06/04 03:06:57;;;;;;;3.88;1.90;;;;;;;-148.88;89.02;-17125.47;4973710;28;20030;-76
2023/06/04 03:09:22;;;;;;;3.55;2.03;;;;;;;-148.88;89.14;-17125.47;4973437;28;20038;-76
2023/06/04 03:11:47;;;;;;;4.82;2.42;;;;;;;-148.88;90.22;-17125.47;4973732;28;20026;-76
2023/06/04 03:14:13;;;;;;;5.32;2.28;;;;;;;-148.88;91.25;-17125.47;4972112;28;20121;-76
2023/06/04 03:16:39;;;;;;;4.18;1.90;;;;;;;-148.88;91.47;-17125.47;4972078;28;20071;-76
2023/06/04 03:19:05;;;;;;;4.15;2.28;;;;;;;-148.88;92.58;-17125.47;4972007;28;20049;-76
2023/06/04 03:23:57;;;;;;;4.07;2.80;;;;;;;-148.88;92.58;-17125.47;4957758;29;20043;-87
2023/06/04 03:26:23;;;;;;;3.15;1.42;;;;;;;-148.88;93.78;-17125.47;4958320;28;20375;-87
2023/06/04 03:28:48;;;;;;;4.68;2.40;;;;;;;-148.88;94.67;-17125.47;4958125;28;20061;-87
2023/06/04 03:31:14;;;;;;;5.43;2.40;;;;;;;-148.88;95.85;-17125.47;4957026;29;20019;-86
2023/06/04 03:33:42;;;;;;;4.10;1.70;;;;;;;-148.88;95.93;-17125.47;4959119;28;20023;-86
2023/06/04 03:36:07;;;;;;;3.78;2.20;;;;;;;-148.88;96.00;-17125.47;4980478;23;20393;-88
2023/06/04 03:38:33;;;;;;;4.25;2.40;;;;;;;-148.88;96.47;-17125.47;4978032;28;20482;-87
2023/06/04 03:40:58;;;;;;;3.92;2.30;;;;;;;-148.88;95.93;-17125.47;4993005;28;20042;-89
2023/06/04 03:43:23;;;;;;;3.10;1.60;;;;;;;-148.88;96.97;-17125.47;4978098;28;20026;-87
2023/06/04 03:45:49;;;;;;;5.22;2.60;;;;;;;-148.88;97.55;-17125.47;4977998;28;20396;-88
2023/06/04 03:48:14;;;;;;;4.70;2.50;;;;;;;-148.88;98.31;-17125.47;4992662;28;20130;-88
2023/06/04 03:50:40;;;;;;;4.45;2.70;;;;;;;-148.88;98.83;-17125.47;4976526;28;20495;-89
2023/06/04 03:53:05;;;;;;;5.30;2.95;;;;;;;-148.88;99.67;-17125.47;4978089;28;20035;-91
2023/06/04 03:55:33;;;;;;;3.10;1.48;;;;;;;-148.88;99.80;-17125.47;4976588;28;20042;-89
2023/06/04 03:57:59;;;;;;;4.95;2.00;;;;;;;-148.88;100.00;-17125.47;4978191;28;20429;-89
2023/06/04 04:00:25;;;;;;;3.85;2.58;;;;;;;-148.88;100.00;-17125.47;4977561;28;20034;-88
2023/06/04 04:02:50;;;;;;;4.75;2.88;;;;;;;-148.88;100.00;-17125.47;4977871;28;20392;-90
2023/06/04 04:05:15;;;;;;;5.70;2.95;;;;;;;-148.88;100.00;-17125.47;4977960;28;20541;-87
2023/06/04 04:07:41;;;;;;;4.68;2.15;;;;;;;-148.88;100.00;-17125.47;4977645;28;20042;-86
2023/06/04 04:10:07;;;;;;;5.10;2.08;;;;;;;-148.88;100.00;-17125.47;4978014;28;20042;-89
2023/06/04 04:12:33;;;;;;;3.33;1.92;;;;;;;-148.88;100.00;-17125.47;4978089;28;20393;-88
2023/06/04 04:14:58;;;;;;;3.85;1.80;;;;;;;-148.88;100.00;-17125.47;4978591;28;20541;-89
2023/06/04 04:17:24;;;;;;;3.15;2.03;;;;;;;-148.88;100.00;-17125.47;4977562;28;20030;-88
2023/06/04 04:19:49;;;;;;;6.97;3.13;;;;;;;-148.88;100.00;-17125.47;4977450;28;20113;-88
2023/06/04 04:22:17;;;;;;;8.82;2.25;;;;;;;-148.88;100.00;-17125.47;4976563;28;20050;-89
2023/06/04 04:24:45;;;;;;;4.80;2.00;;;;;;;-148.88;100.00;-17125.47;4977788;28;20058;-88
2023/06/04 04:27:15;;;;;;;5.20;2.28;;;;;;;-148.88;100.00;-17125.47;4976895;28;20023;-90
2023/06/04 04:29:42;;;;;;;7.15;3.50;;;;;;;-148.88;100.00;-17125.47;4977003;28;20030;-90
2023/06/04 04:32:10;;;;;;;5.47;3.58;;;;;;;-148.88;100.00;-17125.47;4976647;28;20054;-90
2023/06/04 04:34:39;;;;;;;6.65;3.65;;;;;;;-148.88;100.00;-17125.47;4977307;28;20065;-90
2023/06/04 04:37:08;;;;;;;5.68;1.90;;;;;;;-148.88;100.00;-17125.47;4976570;28;20022;-87
2023/06/04 04:39:35;;;;;;;4.43;2.33;;;;;;;-148.88;100.00;-17125.47;4977315;28;20536;-89
2023/06/04 04:42:00;;;;;;;5.50;1.90;;;;;;;-148.88;100.00;-17125.47;4976762;28;20050;-89
2023/06/04 04:44:26;;;;;;;5.45;2.38;;;;;;;-148.88;100.00;-17125.47;4975662;28;20408;-90
2023/06/04 04:46:51;;;;;;;6.10;2.30;;;;;;;-148.88;100.00;-17125.47;4976970;28;20058;-85
2023/06/04 04:49:16;;;;;;;6.13;3.60;;;;;;;-148.88;100.00;-17125.47;4975510;28;20499;-87
2023/06/04 04:51:42;;;;;;;5.05;2.22;;;;;;;-148.88;100.00;-17125.47;4975291;28;20022;-85
2023/06/04 04:54:07;;;;;;;6.63;3.53;;;;;;;-148.88;100.00;-17125.47;4975002;28;20097;-86
2023/06/04 04:56:34;;;;;;;6.60;3.78;;;;;;;-148.88;100.00;-17125.47;4991158;28;20038;-85
2023/06/04 04:58:59;;;;;;;5.82;2.25;;;;;;;-148.88;100.00;-17125.47;4976397;28;20018;-84
2023/06/04 05:01:25;;;;;;;5.45;2.17;;;;;;;-148.88;100.00;-17125.47;4974950;28;20444;-88
2023/06/04 05:03:50;;;;;;;4.50;2.60;;;;;;;-148.88;100.00;-17125.47;4976305;28;20023;-86
2023/06/04 05:06:16;;;;;;;5.20;2.38;;;;;;;-148.88;100.00;-17125.47;4976073;28;20076;-86
2023/06/04 05:08:42;;;;;;;6.78;4.20;;;;;;;-148.88;100.00;-17125.47;4976240;28;20022;-87
2023/06/04 05:11:07;;;;;;;6.80;3.80;;;;;;;-148.88;100.00;-17125.47;4976653;28;20041;-87
2023/06/04 05:13:32;;;;;;;4.88;3.30;;;;;;;-148.88;100.00;-17125.47;4976190;28;20026;-86
2023/06/04 05:15:59;;;;;;;6.15;3.70;;;;;;;-148.88;100.00;-17125.47;4991147;28;20050;-88
2023/06/04 05:18:28;;;;;;;6.97;4.00;;;;;;;-148.88;100.00;-17125.47;4974671;28;20034;-88
2023/06/04 05:20:54;;;;;;;4.97;2.25;;;;;;;-148.88;100.00;-17125.47;4973988;28;20125;-88
2023/06/04 05:23:20;;;;;;;5.30;2.90;;;;;;;-148.88;100.00;-17125.47;4974502;28;20030;-86
2023/06/04 05:25:48;;;;;;;7.45;3.75;;;;;;;-148.88;100.00;-17125.47;4976180;28;20030;-88
2023/06/04 05:28:14;;;;;;;5.18;2.30;;;;;;;-148.88;100.00;-17125.47;4975751;28;20027;-88
2023/06/04 05:30:41;;;;;;;8.43;3.83;;;;;;;-148.88;100.00;-17125.47;4975990;28;20081;-86
2023/06/04 05:33:11;;;;;;;6.75;3.92;;;;;;;-148.88;100.00;-17125.47;4975887;28;20033;-86
2023/06/04 05:35:41;;;;;;;8.50;3.92;;;;;;;-148.88;100.00;-17125.47;4975312;28;20126;-86
2023/06/04 05:38:06;;;;;;;4.85;3.47;;;;;;;-148.88;100.00;-17125.47;4974263;28;20031;-87
2023/06/04 05:40:32;;;;;;;7.32;3.58;;;;;;;-148.88;100.00;-17125.47;4974713;28;20381;-86
2023/06/04 05:42:57;;;;;;;4.50;3.40;;;;;;;-148.88;100.00;-17125.47;4974092;28;20064;-86
2023/06/04 05:45:22;;;;;;;5.07;3.00;;;;;;;-148.88;100.00;-17125.47;4974602;28;20126;-86
2023/06/04 05:47:47;;;;;;;4.85;2.97;;;;;;;-148.88;99.49;-17125.47;4975853;28;20105;-87
2023/06/04 05:50:13;;;;;;;4.30;3.08;;;;;;;-148.88;100.00;-17125.47;4974616;28;20045;-86
2023/06/04 05:52:38;;;;;;;4.22;2.95;;;;;;;-148.88;99.00;-17125.47;4975538;28;20057;-87
2023/06/04 05:55:07;;;;;;;4.68;2.90;;;;;;;-148.88;100.00;-17125.47;4973961;28;20109;-87
2023/06/04 05:57:35;;;;;;;4.07;2.50;;;;;;;-148.88;96.95;-17125.47;4975075;28;20441;-86
2023/06/04 06:00:01;;;;;;;4.32;2.47;;;;;;;-148.88;92.77;-17125.47;4975137;28;20023;-86
2023/06/04 06:02:26;;;;;;;3.90;2.70;;;;;;;-148.88;93.64;-17125.47;4975393;28;20034;-87
2023/06/04 06:04:52;;;;;;;4.72;2.70;;;;;;;-148.88;95.50;-17125.47;4974967;28;20034;-87
2023/06/04 06:07:19;;;;;;;4.28;2.53;;;;;;;-148.88;95.14;-17125.47;4974969;28;20436;-87
2023/06/04 06:09:44;;;;;;;3.30;2.22;;;;;;;-148.88;92.04;-17125.47;4973860;28;20022;-86
2023/06/04 06:12:10;;;;;;;7.20;1.65;;;;;;;-148.88;89.94;-17125.47;4975431;28;20019;-88
2023/06/04 06:14:35;;;;;;;2.95;2.13;;;;;;;-148.88;89.63;-17125.47;4974916;28;20050;-87
2023/06/04 06:17:02;;;;;;;3.88;2.40;;;;;;;-148.88;89.58;-17125.47;4975519;28;20069;-87
2023/06/04 06:19:28;;;;;;;3.90;2.10;;;;;;;-148.88;89.86;-17125.47;4974758;28;20117;-87
2023/06/04 06:21:53;;;;;;;4.35;2.45;;;;;;;-148.88;93.21;-17125.47;4974922;28;20101;-88
2023/06/04 06:24:19;;;;;;;3.33;2.30;;;;;;;-148.88;90.12;-17125.47;4990580;28;20054;-89
2023/06/04 06:26:46;;;;;;;4.78;2.20;;;;;;;-148.88;89.73;-17125.47;4974674;28;20089;-85
2023/06/04 06:29:11;;;;;;;4.97;2.38;;;;;;;-148.88;89.65;-17125.47;4975540;28;20058;-86
2023/06/04 06:31:36;;;;;;;3.45;2.58;;;;;;;-148.88;90.78;-17125.47;4973636;28;20393;-88
2023/06/04 06:34:02;;;;;;;3.63;2.05;;;;;;;-148.88;88.69;-17125.47;4990318;28;20027;-88
2023/06/04 06:36:28;;;;;;;3.55;2.30;;;;;;;-148.88;89.66;-17125.47;4973853;28;20093;-89
2023/06/04 06:38:53;;;;;;;5.00;2.38;;;;;;;-148.88;85.78;-17125.47;4973457;28;20113;-88
2023/06/04 06:41:19;;;;;;;3.72;2.30;;;;;;;-148.88;83.71;-17125.47;4974750;28;20114;-89
2023/06/04 06:43:44;;;;;;;3.78;2.22;;;;;;;-148.88;84.73;-17125.47;4974697;28;20031;-89
2023/06/04 06:46:10;;;;;;;3.70;2.50;;;;;;;-148.88;84.74;-17125.47;4973678;28;20026;-87
2023/06/04 06:48:35;;;;;;;6.80;2.35;;;;;;;-148.88;83.48;-17125.47;4974809;28;20110;-87
2023/06/04 06:51:01;;;;;;;3.70;2.10;;;;;;;-148.88;81.41;-17125.47;4990529;28;20114;-87
2023/06/04 06:53:26;;;;;;;3.92;2.15;;;;;;;-148.88;82.53;-17125.47;4975020;28;20543;-86
2023/06/04 06:55:51;;;;;;;2.63;1.80;;;;;;;-148.88;81.32;-17125.47;4976510;28;20022;-87
2023/06/04 06:58:17;;;;;;;3.75;1.90;;;;;;;-148.88;79.76;-17125.47;4993393;28;20034;-86
2023/06/04 07:00:42;;;;;;;4.53;2.15;;;;;;;-148.88;81.56;-17125.47;4979377;28;20055;-86
2023/06/04 07:03:08;;;;;;;3.30;1.98;;;;;;;-148.88;82.59;-17125.47;4978809;28;20113;-88
2023/06/04 07:05:33;;;;;;;3.13;1.75;;;;;;;-148.88;80.57;-17125.47;4978651;28;20050;-89
2023/06/04 07:08:00;;;;;;;2.55;1.70;;;;;;;-148.88;79.03;-17125.47;4977224;28;20029;-89
2023/06/04 07:10:27;;;;;;;3.20;1.63;;;;;;;-148.88;78.50;-17125.47;4978720;28;20073;-89
2023/06/04 07:12:52;;;;;;;5.40;1.90;;;;;;;-148.88;79.04;-17125.47;4993288;28;20053;-89
2023/06/04 07:15:18;;;;;;;3.03;1.60;;;;;;;-148.88;77.78;-17125.47;4978307;28;20102;-89
2023/06/04 07:17:44;;;;;;;2.85;1.55;;;;;;;-148.88;75.37;-17125.47;4978161;28;20031;-89
2023/06/04 07:20:09;;;;;;;3.67;1.77;;;;;;;-148.88;77.73;-17125.47;4978355;28;20031;-89
2023/06/04 07:22:35;;;;;;;2.65;1.55;;;;;;;-148.88;76.42;-17125.47;4978463;28;20397;-89
2023/06/04 07:25:00;;;;;;;3.95;1.80;;;;;;;-148.88;76.69;-17125.47;4978672;28;20059;-89
2023/06/04 07:27:26;;;;;;;3.05;1.70;;;;;;;-148.88;73.22;-17125.47;4977619;28;20019;-89
2023/06/04 07:29:54;;;;;;;3.30;1.52;;;;;;;-148.88;73.32;-17125.47;4979595;28;20018;-89
2023/06/04 07:32:20;;;;;;;3.28;1.50;;;;;;;-148.88;74.62;-17125.47;4979030;28;20022;-88
2023/06/04 07:34:45;;;;;;;3.50;1.40;;;;;;;-148.88;71.59;-17125.47;4979496;28;20031;-90
2023/06/04 07:37:12;;;;;;;5.80;1.33;;;;;;;-148.88;64.98;-17125.47;4978054;28;20035;-90
2023/06/04 07:39:38;;;;;;;3.40;1.40;;;;;;;-148.88;63.25;-17125.47;4978698;28;20400;-88
2023/06/04 07:42:05;;;;;;;5.45;1.58;;;;;;;-148.88;66.29;-17125.47;4978563;28;20026;-90
2023/06/04 07:44:30;;;;;;;3.00;1.40;;;;;;;-148.88;68.34;-17125.47;4977771;28;20030;-89
2023/06/04 07:46:56;;;;;;;3.35;1.30;;;;;;;-148.88;64.83;-17125.47;4993698;28;20025;-90
2023/06/04 07:49:21;;;;;;;3.13;1.33;;;;;;;-148.88;67.50;-17125.47;4977568;28;20109;-90
2023/06/04 07:51:47;;;;;;;3.65;1.42;;;;;;;-148.88;64.28;-17125.47;4978289;28;20030;-89
2023/06/04 07:54:14;;;;;;;4.35;1.83;;;;;;;-148.88;62.45;-17125.47;4977439;28;20031;-89
2023/06/04 07:56:39;;;;;;;4.88;1.33;;;;;;;-148.88;64.91;-17125.47;4978446;28;20519;-89
2023/06/04 07:59:04;;;;;;;4.32;1.50;;;;;;;-148.88;63.83;-17125.47;4978673;28;20113;-89
2023/06/04 08:01:30;;;;;;;3.50;1.42;;;;;;;-148.88;60.32;-17125.47;4978938;28;20027;-88
2023/06/04 08:03:56;;;;;;;4.20;1.30;;;;;;;-148.88;62.89;-17125.47;4977870;28;20118;-90
2023/06/04 08:06:21;;;;;;;4.20;1.40;;;;;;;-148.88;61.23;-17125.47;4978382;28;20069;-89
2023/06/04 08:08:48;;;;;;;5.47;1.52;;;;;;;-148.88;58.64;-17125.47;4978291;28;20030;-89
2023/06/04 08:11:15;;;;;;;2.67;1.33;;;;;;;-148.88;58.97;-17125.47;4992479;28;20038;-89
2023/06/04 08:13:41;;;;;;;2.83;1.30;;;;;;;-148.88;58.89;-17125.47;4976151;28;20022;-90
2023/06/04 08:16:07;;;;;;;2.97;1.30;;;;;;;-148.88;58.38;-17125.47;4978357;28;20386;-90
2023/06/04 08:18:32;;;;;;;2.60;1.33;;;;;;;-148.88;55.97;-17125.47;4976299;28;20026;-90
2023/06/04 08:20:58;;;;;;;2.83;1.13;;;;;;;-148.88;56.71;-17125.47;4976183;28;20609;-87
2023/06/04 08:23:23;;;;;;;3.40;1.48;;;;;;;-148.88;58.46;-17125.47;4977093;28;20089;-87
2023/06/04 08:25:48;;;;;;;2.63;1.30;;;;;;;-148.88;53.90;-17125.47;4975882;28;20019;-90
2023/06/04 08:28:15;;;;;;;4.45;1.30;;;;;;;-148.88;56.85;-17125.47;4976853;28;20023;-89
2023/06/04 08:30:41;;;;;;;2.58;1.45;;;;;;;-148.88;53.86;-17125.47;4977379;28;20113;-90
2023/06/04 08:33:07;;;;;;;3.05;1.40;;;;;;;-148.88;51.71;-17125.47;4975761;28;20513;-88
2023/06/04 08:35:32;;;;;;;5.53;1.50;;;;;;;-148.88;55.47;-17125.47;4977478;28;20030;-87
2023/06/04 08:37:58;;;;;;;2.75;1.27;;;;;;;-148.88;50.95;-17125.47;4975622;28;20026;-88
2023/06/04 08:40:24;;;;;;;3.42;1.30;;;;;;;-148.88;53.03;-17125.47;4976305;28;20031;-89
2023/06/04 08:42:50;;;;;;;4.05;1.23;;;;;;;-148.88;51.07;-17125.47;4975633;28;20027;-89
2023/06/04 08:45:16;;;;;;;3.85;1.23;;;;;;;-148.88;49.70;-17125.47;4976884;28;20544;-89
2023/06/04 08:47:49;;;;;;;2.70;1.10;;;;;;;-148.88;51.71;-17125.47;4976802;28;20477;-89
2023/06/04 08:50:17;;;;;;;2.47;1.33;;;;;;;-148.88;45.72;-17125.47;4976968;28;20033;-89
2023/06/04 08:52:42;;;;;;;4.70;1.40;;;;;;;-148.88;44.40;-17125.47;4977146;28;20023;-88
2023/06/04 08:55:12;;;;;;;1.83;1.00;;;;;;;-148.88;45.66;-17125.47;4976793;28;20085;-89
2023/06/04 08:57:39;;;;;;;2.92;0.90;;;;;;;-148.88;42.19;-17125.47;4975246;28;20033;-88
2023/06/04 09:00:07;;;;;;;3.70;1.20;;;;;;;-148.88;41.08;-17125.47;4975096;28;20030;-89
2023/06/04 09:02:36;;;;;;;2.63;1.20;;;;;;;-148.88;43.13;-17125.47;4976311;28;20052;-89
2023/06/04 09:05:04;;;;;;;3.25;1.30;;;;;;;-148.88;42.30;-17125.47;4973404;28;20029;-89
2023/06/04 09:07:30;;;;;;;4.13;1.30;;;;;;;-148.88;42.95;-17125.47;4974963;28;20026;-87
2023/06/04 09:09:56;;;;;;;2.55;1.30;;;;;;;-148.88;39.43;-17125.47;4976170;28;20089;-88
2023/06/04 09:12:24;;;;;;;2.55;1.17;;;;;;;-148.88;41.38;-17125.47;4974858;28;20019;-89
2023/06/04 09:14:52;;;;;;;3.47;1.52;;;;;;;-148.88;41.37;-17125.47;4975805;28;20050;-89
2023/06/04 09:17:23;;;;;;;2.92;1.10;;;;;;;-148.88;41.95;-17125.47;4975770;28;20077;-89
2023/06/04 09:19:48;;;;;;;3.03;0.90;;;;;;;-148.88;38.03;-17125.47;4974568;28;20098;-88
2023/06/04 09:22:14;;;;;;;3.10;1.00;;;;;;;-148.88;33.80;-17125.47;4973924;28;20105;-90
2023/06/04 09:24:47;;;;;;;4.05;1.40;;;;;;;-148.88;35.76;-17125.47;4974520;28;20027;-90
2023/06/04 09:27:14;;;;;;;;;;;;;;;-148.88;39.85;-17125.47;4974904;28;20031;-87
2023/06/04 09:29:48;;;;;;;2.85;1.30;;;;;;;-148.88;36.99;-17125.47;4976021;28;19910;-87
2023/06/04 09:32:13;;;;;;;2.38;0.93;;;;;;;-148.88;37.83;-17125.47;4975090;28;20405;-88
2023/06/04 09:34:44;;;;;;;2.92;1.45;;;;;;;-148.88;37.38;-17125.47;4974517;28;20029;-88
2023/06/04 09:37:16;;;;;;;5.25;1.20;;;;;;;-148.88;35.22;-17125.47;4974542;28;20110;-89
2023/06/04 09:39:41;;;;;;;3.33;1.30;;;;;;;-148.88;38.57;-17125.47;4974422;28;20026;-87
2023/06/04 09:42:07;;;;;;;2.70;1.05;;;;;;;-148.88;35.68;-17125.47;4975328;28;20031;-87
2023/06/04 09:44:43;;;;;;;3.15;1.15;;;;;;;-148.88;34.17;-17125.47;4974537;28;20030;-87
2023/06/04 09:47:08;;;;;;;2.15;1.10;;;;;;;-148.88;34.20;-17125.47;4975229;28;20378;-89
2023/06/04 09:49:42;;;;;;;2.10;1.17;;;;;;;-148.88;35.69;-17125.47;4974202;28;20023;-86
2023/06/04 09:52:08;;;;;;;2.72;1.00;;;;;;;-148.88;33.35;-17125.47;4974324;28;20023;-86
2023/06/04 09:54:36;;;;;;;2.45;0.85;;;;;;;-148.88;32.82;-17125.47;4973938;28;20442;-86
2023/06/04 09:57:04;;;;;;;2.65;1.13;;;;;;;-148.88;33.23;-17125.47;4973204;28;20035;-88
2023/06/04 09:59:36;;;;;;;2.90;1.38;;;;;;;-148.88;33.89;-17125.47;4974329;28;20034;-86
2023/06/04 10:02:03;;;;;;;2.78;1.00;;;;;;;-148.88;31.62;-17125.47;4974481;28;20497;-88
2023/06/04 10:04:29;;;;;;;3.38;1.20;;;;;;;-148.88;31.82;-17125.47;4975654;28;20030;-86
2023/06/04 10:06:56;;;;;;;2.40;1.17;;;;;;;-148.88;34.60;-17125.47;4974788;28;20106;-88
2023/06/04 10:09:25;;;;;;;3.33;1.10;;;;;;;-148.88;34.54;-17125.47;4974873;28;20031;-88
2023/06/04 10:11:56;;;;;;;3.50;1.45;;;;;;;-148.88;34.99;-17125.47;4975003;28;20049;-88
2023/06/04 10:14:25;;;;;;;2.15;0.95;;;;;;;-148.88;33.90;-17125.47;4974360;28;20027;-86
2023/06/04 10:16:51;;;;;;;3.78;1.08;;;;;;;-148.88;33.21;-17125.47;4975091;28;20054;-89
2023/06/04 10:19:18;;;;;;;4.20;1.23;;;;;;;-148.88;32.38;-17125.47;4973984;28;20058;-87
2023/06/04 10:21:44;;;;;;;4.05;1.00;;;;;;;-148.88;32.12;-17125.47;4973652;28;20018;-86
2023/06/04 10:24:10;;;;;;;1.90;0.90;;;;;;;-148.88;30.98;-17125.47;4973858;28;20065;-87
2023/06/04 10:26:37;;;;;;;3.85;1.00;;;;;;;-148.88;31.55;-17125.47;4973886;28;20035;-87
2023/06/04 10:29:02;;;;;;;2.13;1.17;;;;;;;-148.88;30.87;-17125.47;4974563;28;20022;-87
2023/06/04 10:31:29;;;;;;;4.43;1.00;;;;;;;-148.88;31.12;-17125.47;4973753;28;20433;-87
2023/06/04 10:33:57;;;;;;;3.67;1.10;;;;;;;-148.88;30.38;-17125.47;4974769;28;20027;-88
2023/06/04 10:36:24;;;;;;;1.73;0.98;;;;;;;-148.88;31.46;-17125.47;4975450;28;20027;-88
2023/06/04 10:38:54;;;;;;;2.92;1.00;;;;;;;-148.88;31.89;-17125.47;4973886;28;20023;-89
2023/06/04 10:41:23;;;;;;;5.13;1.10;;;;;;;-148.88;32.84;-17125.47;4973727;28;20030;-89
2023/06/04 10:43:50;;;;;;;4.10;1.10;;;;;;;-148.88;31.86;-17125.47;4974004;28;20026;-88
2023/06/04 10:46:20;;;;;;;2.90;1.10;;;;;;;-148.88;30.99;-17125.47;4974982;28;20027;-88
2023/06/04 10:48:50;;;;;;;2.30;0.90;;;;;;;-148.88;33.65;-17125.47;4973482;28;20042;-88
2023/06/04 10:51:30;;;;;;;1.80;0.90;;;;;;;-148.88;32.50;-17125.47;4973748;28;20084;-87
2023/06/04 10:53:59;;;;;;;5.03;1.00;;;;;;;-148.88;34.33;-17125.47;4973569;28;20382;-88
2023/06/04 10:56:29;;;;;;;2.63;1.20;;;;;;;-148.88;31.96;-17125.47;4973302;28;20027;-88
2023/06/04 10:58:55;;;;;;;3.03;0.95;;;;;;;-148.88;32.27;-17125.47;4974591;28;20035;-87
2023/06/04 11:01:29;;;;;;;3.10;1.10;;;;;;;-148.88;31.31;-17125.47;4973298;28;20113;-89
2023/06/04 11:03:55;;;;;;;3.38;1.02;;;;;;;-148.88;32.80;-17125.47;4973196;28;20397;-88
2023/06/04 11:06:21;;;;;;;6.32;1.23;;;;;;;-148.88;30.63;-17125.47;4974519;28;20027;-89
2023/06/04 11:08:47;;;;;;;2.15;0.90;;;;;;;-148.88;32.50;-17125.47;4973309;28;20035;-87